createdAt,value
2018-09-09T00:00:40.846Z,1004.0
2018-09-09T00:01:41.555Z,1004.1
2018-09-09T00:02:42.524Z,1004.0
2018-09-09T00:03:43.252Z,1004.0
2018-09-09T00:04:44.021Z,1004.0
2018-09-09T00:05:44.982Z,1004.0
2018-09-09T00:06:45.947Z,1003.9
2018-09-09T00:07:46.672Z,1004.0
2018-09-09T00:08:47.397Z,1004.0
2018-09-09T00:09:48.162Z,1004.0
2018-09-09T00:10:49.128Z,1003.9
2018-09-09T00:11:49.839Z,1003.9
2018-09-09T00:12:50.557Z,1003.9
2018-09-09T00:13:51.283Z,1003.9
2018-09-09T00:14:52.011Z,1003.9
2018-09-09T00:15:52.732Z,1003.9
2018-09-09T00:16:53.450Z,1003.9
2018-09-09T00:17:54.173Z,1003.9
2018-09-09T00:18:54.890Z,1003.9
2018-09-09T00:19:55.617Z,1003.9
2018-09-09T00:20:56.323Z,1003.9
2018-09-09T00:21:57.040Z,1003.9
2018-09-09T00:22:57.764Z,1003.9
2018-09-09T00:23:58.496Z,1004.0
2018-09-09T00:24:59.224Z,1004.0
2018-09-09T00:25:59.930Z,1004.0
2018-09-09T00:27:00.653Z,1004.0
2018-09-09T00:28:01.375Z,1004.0
2018-09-09T00:29:02.106Z,1004.0
2018-09-09T00:30:03.076Z,1004.0
2018-09-09T00:31:04.098Z,1004.0
2018-09-09T00:32:04.812Z,1004.0
2018-09-09T00:33:05.529Z,1003.9
2018-09-09T00:34:06.485Z,1003.9
2018-09-09T00:35:07.209Z,1004.0
2018-09-09T00:36:07.970Z,1003.9
2018-09-09T00:37:08.696Z,1003.9
2018-09-09T00:38:09.412Z,1004.0
2018-09-09T00:39:10.153Z,1004.0
2018-09-09T00:40:10.868Z,1004.0
2018-09-09T00:41:11.596Z,1003.9
2018-09-09T00:42:12.320Z,1003.9
2018-09-09T00:43:13.030Z,1003.9
2018-09-09T00:44:14.045Z,1003.9
2018-09-09T00:45:14.761Z,1003.9
2018-09-09T00:46:15.473Z,1003.9
2018-09-09T00:47:16.207Z,1003.9
2018-09-09T00:48:16.923Z,1003.9
2018-09-09T00:49:17.948Z,1003.9
2018-09-09T00:50:18.920Z,1003.9
2018-09-09T00:51:19.644Z,1003.9
2018-09-09T00:52:20.366Z,1003.9
2018-09-09T00:53:21.092Z,1003.9
2018-09-09T00:54:21.813Z,1003.9
2018-09-09T00:55:22.531Z,1003.9
2018-09-09T00:56:23.250Z,1003.9
2018-09-09T00:57:23.964Z,1003.9
2018-09-09T00:58:24.694Z,1003.9
2018-09-09T00:59:25.464Z,1003.9
2018-09-09T01:00:26.186Z,1003.9
2018-09-09T01:01:26.902Z,1003.9
2018-09-09T01:02:27.617Z,1003.9
2018-09-09T01:03:28.328Z,1003.9
2018-09-09T01:04:29.401Z,1003.9
2018-09-09T01:05:30.117Z,1003.9
2018-09-09T01:06:30.828Z,1003.9
2018-09-09T01:07:31.547Z,1003.9
2018-09-09T01:08:32.263Z,1004.0
2018-09-09T01:09:33.034Z,1004.0
2018-09-09T01:10:33.757Z,1003.9
2018-09-09T01:11:34.487Z,1003.9
2018-09-09T01:12:35.202Z,1004.0
2018-09-09T01:13:35.917Z,1003.9
2018-09-09T01:14:36.678Z,1003.9
2018-09-09T01:15:37.404Z,1003.9
2018-09-09T01:16:38.119Z,1004.0
2018-09-09T01:17:38.846Z,1003.9
2018-09-09T01:18:39.573Z,1003.9
2018-09-09T01:19:40.300Z,1003.9
2018-09-09T01:20:41.015Z,1003.8
2018-09-09T01:21:41.982Z,1003.9
2018-09-09T01:22:42.948Z,1003.9
2018-09-09T01:23:43.678Z,1003.9
2018-09-09T01:24:44.387Z,1003.9
2018-09-09T01:25:45.096Z,1003.9
2018-09-09T01:26:45.876Z,1003.9
2018-09-09T01:27:46.589Z,1003.9
2018-09-09T01:28:47.308Z,1003.9
2018-09-09T01:29:48.019Z,1003.9
2018-09-09T01:30:48.740Z,1003.9
2018-09-09T01:31:49.516Z,1003.9
2018-09-09T01:32:50.231Z,1003.9
2018-09-09T01:33:50.947Z,1003.9
2018-09-09T01:34:51.681Z,1003.9
2018-09-09T01:35:52.392Z,1003.9
2018-09-09T01:36:53.106Z,1003.9
2018-09-09T01:37:53.884Z,1004.0
2018-09-09T01:38:54.599Z,1003.9
2018-09-09T01:39:55.318Z,1003.9
2018-09-09T01:40:56.040Z,1003.9
2018-09-09T01:41:56.764Z,1003.9
2018-09-09T01:42:57.478Z,1004.0
2018-09-09T01:43:58.209Z,1003.9
2018-09-09T01:44:58.919Z,1003.9
2018-09-09T01:45:59.685Z,1003.9
2018-09-09T01:47:00.403Z,1003.9
2018-09-09T01:48:01.122Z,1003.9
2018-09-09T01:49:01.841Z,1003.9
2018-09-09T01:50:02.560Z,1003.9
2018-09-09T01:51:03.334Z,1004.0
2018-09-09T01:52:04.298Z,1004.0
2018-09-09T01:53:05.012Z,1004.0
2018-09-09T01:54:05.748Z,1004.0
2018-09-09T01:55:06.459Z,1004.0
2018-09-09T01:56:07.234Z,1004.0
2018-09-09T01:57:07.998Z,1004.0
2018-09-09T01:58:08.672Z,1004.0
2018-09-09T01:59:09.393Z,1004.1
2018-09-09T02:00:10.115Z,1004.0
2018-09-09T02:01:10.822Z,1004.0
2018-09-09T02:02:11.551Z,1004.0
2018-09-09T02:03:12.268Z,1004.0
2018-09-09T02:04:13.001Z,1004.0
2018-09-09T02:05:13.727Z,1004.0
2018-09-09T02:06:14.443Z,1004.0
2018-09-09T02:07:15.223Z,1004.0
2018-09-09T02:08:15.934Z,1004.0
2018-09-09T02:09:16.661Z,1004.0
2018-09-09T02:10:17.370Z,1004.0
2018-09-09T02:11:18.332Z,1004.0
2018-09-09T02:12:19.103Z,1004.0
2018-09-09T02:13:19.820Z,1004.0
2018-09-09T02:14:20.548Z,1004.0
2018-09-09T02:15:21.519Z,1003.9
2018-09-09T02:16:22.247Z,1003.9
2018-09-09T02:17:22.967Z,1003.9
2018-09-09T02:18:23.680Z,1003.9
2018-09-09T02:19:24.405Z,1003.9
2018-09-09T02:20:25.116Z,1003.9
2018-09-09T02:21:25.839Z,1003.9
2018-09-09T02:22:26.568Z,1003.9
2018-09-09T02:23:27.274Z,1003.9
2018-09-09T02:24:28.011Z,1003.8
2018-09-09T02:25:28.726Z,1003.8
2018-09-09T02:26:29.697Z,1003.8
2018-09-09T02:27:30.413Z,1003.8
2018-09-09T02:28:31.485Z,1003.9
2018-09-09T02:29:32.219Z,1003.9
2018-09-09T02:30:32.932Z,1003.9
2018-09-09T02:31:33.654Z,1003.9
2018-09-09T02:32:34.366Z,1003.9
2018-09-09T02:33:35.340Z,1003.9
2018-09-09T02:34:36.057Z,1003.9
2018-09-09T02:35:36.784Z,1003.8
2018-09-09T02:36:37.497Z,1003.8
2018-09-09T02:37:38.208Z,1003.8
2018-09-09T02:38:38.924Z,1003.8
2018-09-09T02:39:39.639Z,1003.9
2018-09-09T02:40:40.420Z,1003.8
2018-09-09T02:41:41.148Z,1003.8
2018-09-09T02:42:41.866Z,1003.9
2018-09-09T02:43:42.657Z,1003.9
2018-09-09T02:44:43.326Z,1003.9
2018-09-09T02:45:44.097Z,1003.9
2018-09-09T02:46:44.814Z,1003.9
2018-09-09T02:47:45.540Z,1003.9
2018-09-09T02:48:46.255Z,1003.8
2018-09-09T02:49:46.989Z,1003.8
2018-09-09T02:50:48.002Z,1003.8
2018-09-09T02:51:48.724Z,1003.8
2018-09-09T02:52:49.440Z,1003.8
2018-09-09T02:53:50.160Z,1003.8
2018-09-09T02:54:50.895Z,1003.9
2018-09-09T02:55:51.623Z,1003.9
2018-09-09T02:56:52.334Z,1004.0
2018-09-09T02:57:53.059Z,1003.9
2018-09-09T02:58:53.781Z,1003.9
2018-09-09T02:59:54.494Z,1003.9
2018-09-09T03:00:55.456Z,1004.0
2018-09-09T03:01:56.230Z,1004.0
2018-09-09T03:02:56.952Z,1004.0
2018-09-09T03:03:57.666Z,1004.0
2018-09-09T03:04:58.388Z,1004.0
2018-09-09T03:05:59.102Z,1004.0
2018-09-09T03:06:59.862Z,1004.0
2018-09-09T03:08:00.580Z,1004.0
2018-09-09T03:09:01.309Z,1004.0
2018-09-09T03:10:02.027Z,1004.0
2018-09-09T03:11:02.745Z,1004.0
2018-09-09T03:12:03.471Z,1004.0
2018-09-09T03:13:04.187Z,1004.0
2018-09-09T03:14:05.148Z,1004.0
2018-09-09T03:15:05.858Z,1004.0
2018-09-09T03:16:06.637Z,1004.0
2018-09-09T03:17:07.351Z,1004.0
2018-09-09T03:18:08.076Z,1004.0
2018-09-09T03:19:08.796Z,1004.0
2018-09-09T03:20:09.518Z,1004.0
2018-09-09T03:21:10.603Z,1004.0
2018-09-09T03:22:11.314Z,1004.0
2018-09-09T03:23:12.031Z,1004.1
2018-09-09T03:24:12.749Z,1004.1
2018-09-09T03:25:13.479Z,1004.1
2018-09-09T03:26:14.205Z,1004.1
2018-09-09T03:27:14.928Z,1004.1
2018-09-09T03:28:15.652Z,1004.1
2018-09-09T03:29:16.364Z,1004.0
2018-09-09T03:30:17.085Z,1004.0
2018-09-09T03:31:17.803Z,1004.0
2018-09-09T03:32:18.522Z,1004.0
2018-09-09T03:33:19.244Z,1004.0
2018-09-09T03:34:19.964Z,1003.9
2018-09-09T03:35:20.691Z,1004.0
2018-09-09T03:36:21.417Z,1003.9
2018-09-09T03:37:22.142Z,1003.9
2018-09-09T03:38:22.862Z,1003.9
2018-09-09T03:39:23.597Z,1003.9
2018-09-09T03:40:24.666Z,1003.9
2018-09-09T03:41:25.647Z,1003.9
2018-09-09T03:42:26.362Z,1003.9
2018-09-09T03:43:27.080Z,1003.9
2018-09-09T03:44:27.792Z,1003.9
2018-09-09T03:45:28.579Z,1003.9
2018-09-09T03:46:29.295Z,1003.9
2018-09-09T03:47:30.016Z,1003.9
2018-09-09T03:48:30.974Z,1003.9
2018-09-09T03:49:31.688Z,1003.8
2018-09-09T03:50:32.412Z,1003.9
2018-09-09T03:51:33.124Z,1003.8
2018-09-09T03:52:33.848Z,1003.9
2018-09-09T03:53:34.569Z,1003.8
2018-09-09T03:54:35.288Z,1003.9
2018-09-09T03:55:36.053Z,1003.9
2018-09-09T03:56:36.786Z,1003.8
2018-09-09T03:57:37.493Z,1003.9
2018-09-09T03:58:38.226Z,1003.9
2018-09-09T03:59:38.956Z,1003.9
2018-09-09T04:00:39.930Z,1003.9
2018-09-09T04:01:41.003Z,1003.9
2018-09-09T04:02:41.734Z,1003.9
2018-09-09T04:03:42.450Z,1003.9
2018-09-09T04:04:43.172Z,1003.9
2018-09-09T04:05:43.897Z,1004.0
2018-09-09T04:06:44.606Z,1003.9
2018-09-09T04:07:45.321Z,1003.9
2018-09-09T04:08:46.047Z,1004.0
2018-09-09T04:09:46.769Z,1004.0
2018-09-09T04:10:47.490Z,1004.0
2018-09-09T04:11:48.214Z,1003.9
2018-09-09T04:12:48.929Z,1003.9
2018-09-09T04:13:49.704Z,1004.0
2018-09-09T04:14:50.416Z,1004.0
2018-09-09T04:15:51.383Z,1004.0
2018-09-09T04:16:52.108Z,1004.0
2018-09-09T04:17:52.825Z,1003.9
2018-09-09T04:18:53.600Z,1004.0
2018-09-09T04:19:54.323Z,1004.0
2018-09-09T04:20:55.042Z,1004.0
2018-09-09T04:21:55.757Z,1004.0
2018-09-09T04:22:56.468Z,1004.0
2018-09-09T04:23:57.192Z,1004.0
2018-09-09T04:24:57.912Z,1004.0
2018-09-09T04:25:58.880Z,1004.0
2018-09-09T04:26:59.607Z,1004.0
2018-09-09T04:28:00.326Z,1004.0
2018-09-09T04:29:01.048Z,1004.0
2018-09-09T04:30:01.772Z,1004.0
2018-09-09T04:31:02.637Z,1004.0
2018-09-09T04:32:03.207Z,1004.0
2018-09-09T04:33:03.918Z,1004.0
2018-09-09T04:34:04.633Z,1004.0
2018-09-09T04:35:05.708Z,1004.0
2018-09-09T04:36:06.687Z,1004.0
2018-09-09T04:37:07.408Z,1004.0
2018-09-09T04:38:08.120Z,1004.0
2018-09-09T04:39:08.848Z,1004.0
2018-09-09T04:40:09.615Z,1004.0
2018-09-09T04:41:10.337Z,1004.0
2018-09-09T04:42:11.052Z,1004.0
2018-09-09T04:43:11.773Z,1004.0
2018-09-09T04:44:12.494Z,1004.0
2018-09-09T04:45:13.224Z,1004.0
2018-09-09T04:46:14.005Z,1003.9
2018-09-09T04:47:14.672Z,1003.9
2018-09-09T04:48:15.389Z,1003.8
2018-09-09T04:49:16.121Z,1003.9
2018-09-09T04:50:16.843Z,1003.8
2018-09-09T04:51:17.606Z,1003.9
2018-09-09T04:52:18.328Z,1003.8
2018-09-09T04:53:19.046Z,1003.9
2018-09-09T04:54:19.772Z,1003.9
2018-09-09T04:55:20.500Z,1003.9
2018-09-09T04:56:21.278Z,1003.9
2018-09-09T04:57:21.996Z,1003.9
2018-09-09T04:58:22.965Z,1003.9
2018-09-09T04:59:23.689Z,1003.9
2018-09-09T05:00:24.392Z,1004.0
2018-09-09T05:01:25.169Z,1004.0
2018-09-09T05:02:25.832Z,1004.0
2018-09-09T05:03:26.603Z,1004.0
2018-09-09T05:04:27.327Z,1004.0
2018-09-09T05:05:28.047Z,1004.0
2018-09-09T05:06:28.767Z,1004.0
2018-09-09T05:07:29.492Z,1004.0
2018-09-09T05:08:30.223Z,1004.1
2018-09-09T05:09:30.948Z,1004.1
2018-09-09T05:10:31.669Z,1004.1
2018-09-09T05:11:32.391Z,1004.1
2018-09-09T05:12:33.111Z,1004.1
2018-09-09T05:13:33.831Z,1004.1
2018-09-09T05:14:34.798Z,1004.2
2018-09-09T05:15:35.516Z,1004.2
2018-09-09T05:16:36.243Z,1004.2
2018-09-09T05:17:37.012Z,1004.2
2018-09-09T05:18:37.750Z,1004.2
2018-09-09T05:19:38.478Z,1004.2
2018-09-09T05:20:39.210Z,1004.2
2018-09-09T05:21:39.929Z,1004.2
2018-09-09T05:22:40.646Z,1004.2
2018-09-09T05:23:41.365Z,1004.2
2018-09-09T05:24:42.094Z,1004.3
2018-09-09T05:25:42.829Z,1004.3
2018-09-09T05:26:43.550Z,1004.3
2018-09-09T05:27:44.276Z,1004.3
2018-09-09T05:28:44.993Z,1004.3
2018-09-09T05:29:45.715Z,1004.3
2018-09-09T05:30:46.443Z,1004.3
2018-09-09T05:31:47.175Z,1004.4
2018-09-09T05:32:47.888Z,1004.4
2018-09-09T05:33:48.605Z,1004.5
2018-09-09T05:34:49.324Z,1004.4
2018-09-09T05:35:50.039Z,1004.4
2018-09-09T05:36:50.769Z,1004.4
2018-09-09T05:37:51.494Z,1004.4
2018-09-09T05:38:52.237Z,1004.5
2018-09-09T05:39:52.945Z,1004.5
2018-09-09T05:40:53.666Z,1004.5
2018-09-09T05:41:54.387Z,1004.5
2018-09-09T05:42:55.161Z,1004.5
2018-09-09T05:43:55.882Z,1004.4
2018-09-09T05:44:56.605Z,1004.4
2018-09-09T05:45:57.325Z,1004.4
2018-09-09T05:46:58.036Z,1004.5
2018-09-09T05:47:58.762Z,1004.5
2018-09-09T05:48:59.486Z,1004.5
2018-09-09T05:50:00.215Z,1004.5
2018-09-09T05:51:00.936Z,1004.6
2018-09-09T05:52:01.673Z,1004.6
2018-09-09T05:53:02.384Z,1004.5
2018-09-09T05:54:03.110Z,1004.6
2018-09-09T05:55:03.838Z,1004.6
2018-09-09T05:56:04.563Z,1004.5
2018-09-09T05:57:05.286Z,1004.6
2018-09-09T05:58:06.010Z,1004.6
2018-09-09T05:59:06.740Z,1004.6
2018-09-09T06:00:07.468Z,1004.5
2018-09-09T06:01:08.208Z,1004.5
2018-09-09T06:02:08.916Z,1004.5
2018-09-09T06:03:09.638Z,1004.5
2018-09-09T06:04:10.377Z,1004.5
2018-09-09T06:05:11.096Z,1004.6
2018-09-09T06:06:12.076Z,1004.6
2018-09-09T06:07:13.049Z,1004.6
2018-09-09T06:08:13.773Z,1004.6
2018-09-09T06:09:14.495Z,1004.7
2018-09-09T06:10:15.570Z,1004.7
2018-09-09T06:11:16.301Z,1004.7
2018-09-09T06:12:17.022Z,1004.7
2018-09-09T06:13:17.756Z,1004.6
2018-09-09T06:14:18.475Z,1004.6
2018-09-09T06:15:19.260Z,1004.7
2018-09-09T06:16:19.988Z,1004.7
2018-09-09T06:17:20.727Z,1004.7
2018-09-09T06:18:21.442Z,1004.7
2018-09-09T06:19:22.178Z,1004.7
2018-09-09T06:20:22.891Z,1004.7
2018-09-09T06:21:23.862Z,1004.7
2018-09-09T06:22:24.587Z,1004.7
2018-09-09T06:23:25.309Z,1004.7
2018-09-09T06:24:26.036Z,1004.7
2018-09-09T06:25:26.757Z,1004.7
2018-09-09T06:26:27.473Z,1004.7
2018-09-09T06:27:28.207Z,1004.7
2018-09-09T06:28:28.921Z,1004.7
2018-09-09T06:29:29.658Z,1004.7
2018-09-09T06:30:30.387Z,1004.7
2018-09-09T06:31:31.113Z,1004.6
2018-09-09T06:32:31.839Z,1004.7
2018-09-09T06:33:32.572Z,1004.6
2018-09-09T06:34:33.294Z,1004.7
2018-09-09T06:35:34.015Z,1004.7
2018-09-09T06:36:34.996Z,1004.7
2018-09-09T06:37:35.718Z,1004.7
2018-09-09T06:38:36.446Z,1004.7
2018-09-09T06:39:37.170Z,1004.7
2018-09-09T06:40:37.956Z,1004.7
2018-09-09T06:41:38.688Z,1004.7
2018-09-09T06:42:39.406Z,1004.7
2018-09-09T06:43:40.125Z,1004.8
2018-09-09T06:44:40.843Z,1004.8
2018-09-09T06:45:41.965Z,1004.8
2018-09-09T06:46:42.654Z,1004.8
2018-09-09T06:47:43.379Z,1004.8
2018-09-09T06:48:44.115Z,1004.8
2018-09-09T06:49:44.838Z,1004.8
2018-09-09T06:50:45.569Z,1004.8
2018-09-09T06:51:46.298Z,1004.8
2018-09-09T06:52:47.034Z,1004.8
2018-09-09T06:53:48.014Z,1004.7
2018-09-09T06:54:48.747Z,1004.7
2018-09-09T06:55:49.464Z,1004.7
2018-09-09T06:56:50.207Z,1004.8
2018-09-09T06:57:50.980Z,1004.7
2018-09-09T06:58:51.707Z,1004.7
2018-09-09T06:59:52.428Z,1004.7
2018-09-09T07:00:53.153Z,1004.7
2018-09-09T07:01:53.880Z,1004.7
2018-09-09T07:02:54.606Z,1004.7
2018-09-09T07:03:55.319Z,1004.7
2018-09-09T07:04:56.051Z,1004.7
2018-09-09T07:05:56.792Z,1004.7
2018-09-09T07:06:57.513Z,1004.7
2018-09-09T07:07:58.246Z,1004.7
2018-09-09T07:08:58.968Z,1004.8
2018-09-09T07:09:59.698Z,1004.7
2018-09-09T07:11:00.599Z,1004.7
2018-09-09T07:12:01.312Z,1004.7
2018-09-09T07:13:01.869Z,1004.7
2018-09-09T07:14:02.587Z,1004.8
2018-09-09T07:15:03.313Z,1004.7
2018-09-09T07:16:04.097Z,1004.8
2018-09-09T07:17:04.827Z,1004.8
2018-09-09T07:18:05.553Z,1004.8
2018-09-09T07:19:06.317Z,1004.8
2018-09-09T07:20:07.013Z,1004.8
2018-09-09T07:21:07.740Z,1004.8
2018-09-09T07:22:08.482Z,1004.9
2018-09-09T07:23:09.213Z,1004.9
2018-09-09T07:24:09.931Z,1004.9
2018-09-09T07:25:10.719Z,1004.9
2018-09-09T07:26:11.448Z,1004.9
2018-09-09T07:27:12.196Z,1004.9
2018-09-09T07:28:12.916Z,1004.9
2018-09-09T07:29:13.645Z,1004.9
2018-09-09T07:30:14.713Z,1004.9
2018-09-09T07:31:15.460Z,1005.0
2018-09-09T07:32:16.186Z,1004.9
2018-09-09T07:33:16.906Z,1004.9
2018-09-09T07:34:17.689Z,1005.0
2018-09-09T07:35:18.362Z,1005.0
2018-09-09T07:36:19.084Z,1005.0
2018-09-09T07:37:19.858Z,1005.0
2018-09-09T07:38:20.547Z,1005.0
2018-09-09T07:39:21.276Z,1005.0
2018-09-09T07:40:22.003Z,1005.0
2018-09-09T07:41:22.732Z,1004.9
2018-09-09T07:42:23.455Z,1005.0
2018-09-09T07:43:24.194Z,1005.0
2018-09-09T07:44:24.915Z,1005.0
2018-09-09T07:45:25.690Z,1005.0
2018-09-09T07:46:26.447Z,1005.0
2018-09-09T07:47:27.139Z,1005.1
2018-09-09T07:48:27.866Z,1005.1
2018-09-09T07:49:28.587Z,1005.1
2018-09-09T07:50:29.378Z,1005.1
2018-09-09T07:51:30.107Z,1005.1
2018-09-09T07:52:30.827Z,1005.1
2018-09-09T07:53:31.545Z,1005.1
2018-09-09T07:54:32.276Z,1005.1
2018-09-09T07:55:33.055Z,1005.1
2018-09-09T07:56:33.792Z,1005.1
2018-09-09T07:57:34.526Z,1005.1
2018-09-09T07:58:35.262Z,1005.1
2018-09-09T07:59:35.987Z,1005.1
2018-09-09T08:00:36.763Z,1005.1
2018-09-09T08:01:37.484Z,1005.0
2018-09-09T08:02:38.214Z,1005.0
2018-09-09T08:03:38.952Z,1005.1
2018-09-09T08:04:39.687Z,1005.1
2018-09-09T08:05:40.411Z,1005.1
2018-09-09T08:06:41.188Z,1005.1
2018-09-09T08:07:41.925Z,1005.1
2018-09-09T08:08:42.659Z,1005.1
2018-09-09T08:09:43.393Z,1005.1
2018-09-09T08:10:44.128Z,1005.1
2018-09-09T08:11:44.902Z,1005.1
2018-09-09T08:12:45.634Z,1005.1
2018-09-09T08:13:46.359Z,1005.0
2018-09-09T08:14:47.103Z,1005.1
2018-09-09T08:15:47.827Z,1005.1
2018-09-09T08:16:48.608Z,1005.1
2018-09-09T08:17:49.338Z,1005.1
2018-09-09T08:18:50.065Z,1005.1
2018-09-09T08:19:50.800Z,1005.1
2018-09-09T08:20:51.536Z,1005.2
2018-09-09T08:21:52.273Z,1005.2
2018-09-09T08:22:52.998Z,1005.2
2018-09-09T08:23:53.752Z,1005.2
2018-09-09T08:24:54.514Z,1005.2
2018-09-09T08:25:55.258Z,1005.2
2018-09-09T08:26:55.974Z,1005.2
2018-09-09T08:27:56.707Z,1005.2
2018-09-09T08:28:57.443Z,1005.2
2018-09-09T08:29:58.173Z,1005.2
2018-09-09T08:30:58.910Z,1005.2
2018-09-09T08:31:59.637Z,1005.2
2018-09-09T08:33:00.367Z,1005.2
2018-09-09T08:34:01.097Z,1005.2
2018-09-09T08:35:01.821Z,1005.2
2018-09-09T08:36:02.543Z,1005.2
2018-09-09T08:37:03.287Z,1005.3
2018-09-09T08:38:04.018Z,1005.2
2018-09-09T08:39:04.766Z,1005.2
2018-09-09T08:40:05.501Z,1005.2
2018-09-09T08:41:06.236Z,1005.3
2018-09-09T08:42:06.961Z,1005.3
2018-09-09T08:43:07.702Z,1005.3
2018-09-09T08:44:08.435Z,1005.3
2018-09-09T08:45:09.173Z,1005.3
2018-09-09T08:46:09.901Z,1005.3
2018-09-09T08:47:10.885Z,1005.2
2018-09-09T08:48:11.610Z,1005.2
2018-09-09T08:49:12.342Z,1005.3
2018-09-09T08:50:13.125Z,1005.3
2018-09-09T08:51:13.851Z,1005.4
2018-09-09T08:52:14.669Z,1005.4
2018-09-09T08:53:15.335Z,1005.3
2018-09-09T08:54:16.063Z,1005.3
2018-09-09T08:55:16.855Z,1005.4
2018-09-09T08:56:17.574Z,1005.3
2018-09-09T08:57:18.302Z,1005.3
2018-09-09T08:58:19.031Z,1005.4
2018-09-09T08:59:19.760Z,1005.4
2018-09-09T09:00:20.493Z,1005.3
2018-09-09T09:01:21.233Z,1005.3
2018-09-09T09:02:21.956Z,1005.3
2018-09-09T09:03:22.707Z,1005.3
2018-09-09T09:04:23.437Z,1005.3
2018-09-09T09:05:24.169Z,1005.3
2018-09-09T09:06:24.906Z,1005.3
2018-09-09T09:07:25.653Z,1005.3
2018-09-09T09:08:26.367Z,1005.3
2018-09-09T09:09:27.088Z,1005.3
2018-09-09T09:10:27.839Z,1005.3
2018-09-09T09:11:28.560Z,1005.3
2018-09-09T09:12:29.308Z,1005.3
2018-09-09T09:13:30.031Z,1005.2
2018-09-09T09:14:30.765Z,1005.2
2018-09-09T09:15:31.493Z,1005.2
2018-09-09T09:16:32.247Z,1005.2
2018-09-09T09:17:33.367Z,1005.2
2018-09-09T09:18:34.162Z,1005.2
2018-09-09T09:19:34.830Z,1005.2
2018-09-09T09:20:35.586Z,1005.2
2018-09-09T09:21:36.304Z,1005.2
2018-09-09T09:22:37.087Z,1005.2
2018-09-09T09:23:37.912Z,1005.1
2018-09-09T09:24:38.578Z,1005.2
2018-09-09T09:25:39.551Z,1005.2
2018-09-09T09:26:40.290Z,1005.1
2018-09-09T09:27:41.364Z,1005.1
2018-09-09T09:28:42.102Z,1005.1
2018-09-09T09:29:42.831Z,1005.1
2018-09-09T09:30:43.566Z,1005.0
2018-09-09T09:31:44.301Z,1005.0
2018-09-09T09:32:45.076Z,1005.0
2018-09-09T09:33:45.817Z,1005.0
2018-09-09T09:34:46.546Z,1004.9
2018-09-09T09:35:47.527Z,1004.9
2018-09-09T09:36:48.273Z,1004.9
2018-09-09T09:37:49.015Z,1004.9
2018-09-09T09:38:49.743Z,1004.9
2018-09-09T09:39:50.455Z,1004.9
2018-09-09T09:40:51.206Z,1004.9
2018-09-09T09:41:51.926Z,1005.0
2018-09-09T09:42:52.706Z,1004.9
2018-09-09T09:43:53.433Z,1004.9
2018-09-09T09:44:54.182Z,1004.8
2018-09-09T09:45:54.898Z,1004.8
2018-09-09T09:46:55.621Z,1004.9
2018-09-09T09:47:56.703Z,1004.9
2018-09-09T09:48:57.430Z,1005.0
2018-09-09T09:49:58.164Z,1005.0
2018-09-09T09:50:58.892Z,1005.0
2018-09-09T09:51:59.640Z,1005.0
2018-09-09T09:53:00.395Z,1005.1
2018-09-09T09:54:01.157Z,1005.1
2018-09-09T09:55:01.922Z,1005.0
2018-09-09T09:56:02.639Z,1005.1
2018-09-09T09:57:03.380Z,1005.1
2018-09-09T09:58:04.130Z,1005.1
2018-09-09T09:59:04.911Z,1005.2
2018-09-09T10:00:05.640Z,1005.2
2018-09-09T10:01:06.370Z,1005.2
2018-09-09T10:02:07.362Z,1005.2
2018-09-09T10:03:08.084Z,1005.2
2018-09-09T10:04:08.816Z,1005.1
2018-09-09T10:05:09.555Z,1005.2
2018-09-09T10:06:10.289Z,1005.2
2018-09-09T10:07:11.013Z,1005.3
2018-09-09T10:08:11.746Z,1005.3
2018-09-09T10:09:12.474Z,1005.2
2018-09-09T10:10:13.201Z,1005.2
2018-09-09T10:11:13.939Z,1005.1
2018-09-09T10:12:14.675Z,1005.1
2018-09-09T10:13:15.413Z,1005.1
2018-09-09T10:14:16.142Z,1005.2
2018-09-09T10:15:16.980Z,1005.1
2018-09-09T10:16:17.660Z,1005.2
2018-09-09T10:17:18.398Z,1005.1
2018-09-09T10:18:19.133Z,1005.2
2018-09-09T10:19:19.883Z,1005.1
2018-09-09T10:20:20.664Z,1005.1
2018-09-09T10:21:21.401Z,1005.1
2018-09-09T10:22:22.128Z,1005.1
2018-09-09T10:23:22.868Z,1005.0
2018-09-09T10:24:23.603Z,1005.0
2018-09-09T10:25:24.336Z,1005.0
2018-09-09T10:26:25.069Z,1005.0
2018-09-09T10:27:25.812Z,1005.0
2018-09-09T10:28:26.564Z,1005.0
2018-09-09T10:29:27.294Z,1005.0
2018-09-09T10:30:28.047Z,1005.0
2018-09-09T10:31:28.787Z,1005.1
2018-09-09T10:32:29.525Z,1005.1
2018-09-09T10:33:30.267Z,1005.1
2018-09-09T10:34:30.997Z,1005.1
2018-09-09T10:35:31.732Z,1005.1
2018-09-09T10:36:32.458Z,1005.0
2018-09-09T10:37:33.192Z,1005.0
2018-09-09T10:38:33.925Z,1005.1
2018-09-09T10:39:34.662Z,1005.1
2018-09-09T10:40:35.402Z,1005.1
2018-09-09T10:41:36.131Z,1005.1
2018-09-09T10:42:36.862Z,1005.1
2018-09-09T10:43:37.602Z,1005.1
2018-09-09T10:44:38.333Z,1005.1
2018-09-09T10:45:39.055Z,1005.1
2018-09-09T10:46:39.871Z,1005.1
2018-09-09T10:47:40.585Z,1005.1
2018-09-09T10:48:41.578Z,1005.1
2018-09-09T10:49:42.312Z,1005.1
2018-09-09T10:50:43.056Z,1005.2
2018-09-09T10:51:43.843Z,1005.2
2018-09-09T10:52:44.586Z,1005.1
2018-09-09T10:53:45.324Z,1005.1
2018-09-09T10:54:46.065Z,1005.1
2018-09-09T10:55:46.812Z,1005.0
2018-09-09T10:56:47.537Z,1005.0
2018-09-09T10:57:48.266Z,1005.1
2018-09-09T10:58:49.049Z,1005.0
2018-09-09T10:59:50.115Z,1005.1
2018-09-09T11:00:50.921Z,1005.0
2018-09-09T11:01:51.654Z,1005.0
2018-09-09T11:02:53.413Z,1005.1
2018-09-09T11:03:55.968Z,1005.1
2018-09-09T11:04:57.158Z,1005.1
2018-09-09T11:05:58.061Z,1005.0
2018-09-09T11:07:00.072Z,1004.9
2018-09-09T11:08:01.380Z,1004.9
2018-09-09T11:09:02.581Z,1005.0
2018-09-09T11:10:04.287Z,1005.0
2018-09-09T11:11:05.417Z,1005.0
2018-09-09T11:12:06.854Z,1005.0
2018-09-09T11:13:07.597Z,1004.9
2018-09-09T11:14:08.380Z,1004.9
2018-09-09T11:15:09.118Z,1004.9
2018-09-09T11:16:09.860Z,1004.9
2018-09-09T11:17:10.597Z,1004.9
2018-09-09T11:18:11.334Z,1004.9
2018-09-09T11:19:12.120Z,1005.0
2018-09-09T11:20:12.860Z,1005.0
2018-09-09T11:21:13.605Z,1005.0
2018-09-09T11:22:14.351Z,1005.0
2018-09-09T11:23:15.077Z,1005.0
2018-09-09T11:24:15.863Z,1005.0
2018-09-09T11:25:16.596Z,1005.0
2018-09-09T11:26:17.340Z,1005.0
2018-09-09T11:27:18.318Z,1005.1
2018-09-09T11:28:19.054Z,1005.1
2018-09-09T11:29:19.792Z,1005.1
2018-09-09T11:30:20.576Z,1005.1
2018-09-09T11:31:21.320Z,1005.1
2018-09-09T11:32:22.058Z,1005.1
2018-09-09T11:33:22.798Z,1005.1
2018-09-09T11:34:23.538Z,1005.0
2018-09-09T11:35:24.278Z,1005.0
2018-09-09T11:36:25.096Z,1005.0
2018-09-09T11:37:25.786Z,1005.0
2018-09-09T11:38:26.516Z,1005.0
2018-09-09T11:39:27.249Z,1005.0
2018-09-09T11:40:28.026Z,1005.0
2018-09-09T11:41:28.774Z,1005.0
2018-09-09T11:42:29.511Z,1004.9
2018-09-09T11:43:30.272Z,1005.0
2018-09-09T11:44:31.000Z,1005.0
2018-09-09T11:45:31.754Z,1004.9
2018-09-09T11:46:32.481Z,1005.0
2018-09-09T11:47:33.220Z,1005.0
2018-09-09T11:48:33.965Z,1005.0
2018-09-09T11:49:34.978Z,1005.0
2018-09-09T11:50:35.705Z,1005.0
2018-09-09T11:51:36.688Z,1004.9
2018-09-09T11:52:37.460Z,1004.9
2018-09-09T11:53:38.196Z,1004.9
2018-09-09T11:54:38.926Z,1004.9
2018-09-09T11:55:39.673Z,1004.9
2018-09-09T11:56:40.398Z,1005.0
2018-09-09T11:57:41.200Z,1005.0
2018-09-09T11:58:41.905Z,1005.0
2018-09-09T11:59:42.686Z,1005.0
2018-09-09T12:00:43.586Z,1005.0
2018-09-09T12:01:44.363Z,1005.0
2018-09-09T12:02:45.451Z,1005.0
2018-09-09T12:03:46.191Z,1005.0
2018-09-09T12:04:46.927Z,1005.0
2018-09-09T12:05:47.661Z,1005.0
2018-09-09T12:06:48.398Z,1004.9
2018-09-09T12:07:49.495Z,1005.0
2018-09-09T12:08:50.597Z,1004.9
2018-09-09T12:09:51.350Z,1004.9
2018-09-09T12:10:52.174Z,1005.0
2018-09-09T12:11:52.924Z,1005.0
2018-09-09T12:12:53.697Z,1005.0
2018-09-09T12:13:54.433Z,1005.0
2018-09-09T12:14:55.585Z,1005.0
2018-09-09T12:15:56.356Z,1005.0
2018-09-09T12:16:57.084Z,1005.0
2018-09-09T12:17:57.830Z,1004.9
2018-09-09T12:18:58.575Z,1004.9
2018-09-09T12:19:59.305Z,1004.9
2018-09-09T12:21:00.038Z,1005.0
2018-09-09T12:22:00.767Z,1005.0
2018-09-09T12:23:01.503Z,1005.0
2018-09-09T12:24:02.232Z,1005.0
2018-09-09T12:25:02.967Z,1005.0
2018-09-09T12:26:03.705Z,1005.0
2018-09-09T12:27:04.449Z,1005.0
2018-09-09T12:28:05.191Z,1005.0
2018-09-09T12:29:05.921Z,1005.0
2018-09-09T12:30:06.657Z,1004.9
2018-09-09T12:31:07.638Z,1004.9
2018-09-09T12:32:08.425Z,1005.0
2018-09-09T12:33:09.116Z,1005.0
2018-09-09T12:34:09.851Z,1005.1
2018-09-09T12:35:10.582Z,1005.0
2018-09-09T12:36:11.373Z,1005.0
2018-09-09T12:37:12.106Z,1005.0
2018-09-09T12:38:12.838Z,1005.0